createdAt,value
2023-04-13T00:02:15.910Z,3.50
2023-04-13T00:04:45.282Z,4.65
2023-04-13T00:07:16.175Z,3.35
2023-04-13T00:09:47.625Z,2.33
2023-04-13T00:12:18.776Z,5.33
2023-04-13T00:14:50.268Z,4.53
2023-04-13T00:17:19.548Z,2.92
2023-04-13T00:19:50.289Z,4.50
2023-04-13T00:22:19.526Z,4.87
2023-04-13T00:24:49.261Z,3.55
2023-04-13T00:27:18.995Z,5.03
2023-04-13T00:29:48.372Z,6.17
2023-04-13T00:32:17.729Z,4.97
2023-04-13T00:34:47.190Z,3.52
2023-04-13T00:37:16.557Z,6.58
2023-04-13T00:39:50.165Z,6.20
2023-04-13T00:42:20.432Z,8.03
2023-04-13T00:44:50.073Z,8.60
2023-04-13T00:47:23.045Z,8.13
2023-04-13T00:49:53.926Z,7.55
2023-04-13T00:52:23.884Z,4.85
2023-04-13T00:54:55.237Z,5.15
2023-04-13T00:57:25.951Z,5.78
2023-04-13T00:59:56.022Z,7.83
2023-04-13T01:02:26.596Z,8.23
2023-04-13T01:04:57.487Z,8.58
2023-04-13T01:07:40.523Z,7.37
2023-04-13T01:10:18.919Z,8.78
2023-04-13T01:13:25.587Z,6.83
2023-04-13T01:16:08.781Z,3.70
2023-04-13T01:18:41.897Z,5.30
2023-04-13T01:21:15.237Z,7.42
2023-04-13T01:24:15.244Z,9.40
2023-04-13T01:27:11.374Z,9.78
2023-04-13T01:29:41.536Z,9.15
2023-04-13T01:32:11.638Z,8.65
2023-04-13T01:34:41.723Z,8.88
2023-04-13T01:37:11.532Z,10.90
2023-04-13T01:39:41.206Z,8.25
2023-04-13T01:42:15.164Z,9.63
2023-04-13T01:44:45.661Z,7.62
2023-04-13T01:47:17.001Z,7.70
2023-04-13T01:49:52.541Z,7.80
2023-04-13T01:52:24.815Z,7.42
2023-04-13T01:54:56.426Z,6.08
2023-04-13T01:57:26.222Z,9.90
2023-04-13T01:59:56.108Z,8.05
2023-04-13T02:02:25.840Z,4.70
2023-04-13T02:04:57.518Z,11.50
2023-04-13T02:07:27.171Z,8.88
2023-04-13T02:09:57.100Z,6.28
2023-04-13T02:12:26.758Z,8.13
2023-04-13T02:14:56.619Z,9.48
2023-04-13T02:17:27.143Z,10.50
2023-04-13T02:19:57.979Z,7.62
2023-04-13T02:22:27.453Z,8.50
2023-04-13T02:24:57.785Z,5.80
2023-04-13T02:27:28.758Z,5.87
2023-04-13T02:29:58.008Z,8.73
2023-04-13T02:32:29.256Z,7.58
2023-04-13T02:34:59.625Z,11.60
2023-04-13T02:37:33.038Z,9.48
2023-04-13T02:40:03.116Z,8.35
2023-04-13T02:42:32.479Z,8.63
2023-04-13T02:45:02.145Z,7.95
2023-04-13T02:47:32.628Z,6.92
2023-04-13T02:50:02.700Z,7.37
2023-04-13T02:52:33.806Z,7.12
2023-04-13T02:55:05.675Z,4.90
2023-04-13T02:57:36.752Z,7.22
2023-04-13T03:00:09.258Z,7.30
2023-04-13T03:02:42.605Z,7.45
2023-04-13T03:05:12.999Z,10.25
2023-04-13T03:07:43.092Z,5.15
2023-04-13T03:10:14.065Z,7.42
2023-04-13T03:12:45.085Z,6.10
2023-04-13T03:15:14.856Z,2.90
2023-04-13T03:17:44.687Z,6.47
2023-04-13T03:20:17.659Z,7.35
2023-04-13T03:22:48.670Z,11.05
2023-04-13T03:25:18.149Z,12.75
2023-04-13T03:27:47.643Z,6.50
2023-04-13T03:30:18.852Z,10.72
2023-04-13T03:32:53.141Z,9.05
2023-04-13T03:35:23.350Z,7.90
2023-04-13T03:37:52.720Z,5.90
2023-04-13T03:40:35.860Z,6.35
2023-04-13T03:43:05.374Z,6.60
2023-04-13T03:45:36.772Z,8.28
2023-04-13T03:48:08.499Z,10.10
2023-04-13T03:50:37.864Z,13.28
2023-04-13T03:53:08.029Z,10.80
2023-04-13T03:55:38.463Z,12.80
2023-04-13T03:58:08.933Z,12.25
2023-04-13T04:00:38.594Z,10.18
2023-04-13T04:03:12.354Z,13.32
2023-04-13T04:05:46.387Z,13.15
2023-04-13T04:08:15.798Z,8.70
2023-04-13T04:10:45.563Z,12.60
2023-04-13T04:13:15.509Z,17.50
2023-04-13T04:15:46.620Z,8.35
2023-04-13T04:18:16.561Z,11.00
2023-04-13T04:20:46.026Z,10.50
2023-04-13T04:23:16.855Z,13.60
2023-04-13T04:25:52.002Z,9.90
2023-04-13T04:28:22.185Z,8.60
2023-04-13T04:30:55.394Z,8.03
2023-04-13T04:33:25.621Z,7.62
2023-04-13T04:35:55.260Z,9.65
2023-04-13T04:38:26.393Z,10.82
2023-04-13T04:40:57.839Z,8.53
2023-04-13T04:43:29.099Z,9.73
2023-04-13T04:45:59.219Z,11.27
2023-04-13T04:48:30.167Z,8.65
2023-04-13T04:51:00.040Z,11.50
2023-04-13T04:53:31.241Z,9.88
2023-04-13T04:56:00.841Z,10.80
2023-04-13T04:58:32.174Z,7.60
2023-04-13T05:01:01.667Z,6.22
2023-04-13T05:03:31.908Z,13.13
2023-04-13T05:06:02.984Z,8.08
2023-04-13T05:08:33.888Z,8.68
2023-04-13T05:11:04.805Z,11.53
2023-04-13T05:13:34.506Z,8.55
2023-04-13T05:16:12.079Z,8.68
2023-04-13T05:18:47.332Z,12.45
2023-04-13T05:21:21.044Z,11.35
2023-04-13T05:23:52.132Z,7.75
2023-04-13T05:26:21.930Z,8.20
2023-04-13T05:28:52.674Z,7.47
2023-04-13T05:31:24.412Z,10.40
2023-04-13T05:33:54.379Z,6.37
2023-04-13T05:36:24.022Z,8.93
2023-04-13T05:38:53.437Z,10.45
2023-04-13T05:41:24.492Z,9.13
2023-04-13T05:43:53.818Z,8.48
2023-04-13T05:46:23.327Z,9.23
2023-04-13T05:48:52.801Z,7.33
2023-04-13T05:51:22.933Z,9.88
2023-04-13T05:53:53.125Z,8.48
2023-04-13T05:56:22.467Z,12.70
2023-04-13T05:58:52.360Z,9.93
2023-04-13T06:01:24.387Z,10.88
2023-04-13T06:03:54.775Z,10.80
2023-04-13T06:06:25.447Z,9.50
2023-04-13T06:08:55.141Z,10.25
2023-04-13T06:11:26.050Z,12.23
2023-04-13T06:13:58.101Z,9.90
2023-04-13T06:16:27.369Z,13.13
2023-04-13T06:18:57.396Z,9.53
2023-04-13T06:21:28.702Z,10.13
2023-04-13T06:23:58.010Z,10.45
2023-04-13T06:26:33.352Z,14.55
2023-04-13T06:29:03.815Z,11.85
2023-04-13T06:31:35.046Z,11.43
2023-04-13T06:34:05.078Z,16.05
2023-04-13T06:36:37.676Z,9.95
2023-04-13T06:39:08.422Z,12.50
2023-04-13T06:41:39.226Z,12.35
2023-04-13T06:44:22.430Z,13.28
2023-04-13T06:46:53.829Z,14.35
2023-04-13T06:49:24.206Z,11.28
2023-04-13T06:51:53.669Z,18.92
2023-04-13T06:54:22.997Z,16.20
2023-04-13T06:56:54.170Z,14.87
2023-04-13T06:59:23.451Z,14.00
2023-04-13T07:01:53.384Z,15.50
2023-04-13T07:04:24.424Z,12.33
2023-04-13T07:06:54.881Z,10.40
2023-04-13T07:09:24.541Z,16.20
2023-04-13T07:11:54.261Z,13.78
2023-04-13T07:14:23.594Z,17.30
2023-04-13T07:16:53.418Z,23.92
2023-04-13T07:19:23.816Z,14.33
2023-04-13T07:21:53.143Z,19.07
2023-04-13T07:24:22.900Z,12.82
2023-04-13T07:26:52.657Z,16.82
2023-04-13T07:29:22.022Z,19.80
2023-04-13T07:31:53.449Z,20.62
2023-04-13T07:34:22.997Z,13.03
2023-04-13T07:36:52.912Z,12.30
2023-04-13T07:39:22.920Z,15.60
2023-04-13T07:41:53.769Z,12.35
2023-04-13T07:44:24.741Z,8.75
2023-04-13T07:46:57.054Z,9.18
2023-04-13T07:49:27.442Z,17.85
2023-04-13T07:51:57.223Z,14.83
2023-04-13T07:54:27.249Z,16.23
2023-04-13T07:56:59.915Z,14.80
2023-04-13T07:59:30.645Z,18.48
2023-04-13T08:02:00.940Z,13.28
2023-04-13T08:04:32.155Z,8.18
2023-04-13T08:07:05.802Z,15.80
2023-04-13T08:09:40.665Z,10.40
2023-04-13T08:12:10.445Z,13.05
2023-04-13T08:14:41.519Z,17.92
2023-04-13T08:17:11.919Z,14.20
2023-04-13T08:19:41.898Z,14.38
2023-04-13T08:22:12.884Z,17.90
2023-04-13T08:24:42.247Z,17.05
2023-04-13T08:27:12.107Z,15.48
2023-04-13T08:29:41.428Z,18.37
2023-04-13T08:32:11.484Z,20.00
2023-04-13T08:34:42.273Z,10.35
2023-04-13T08:37:13.734Z,22.27
2023-04-13T08:39:43.315Z,24.60
2023-04-13T08:42:13.488Z,13.60
2023-04-13T08:44:44.258Z,13.25
2023-04-13T08:47:13.579Z,16.35
2023-04-13T08:49:44.770Z,18.90
2023-04-13T08:52:17.047Z,18.70
2023-04-13T08:54:48.140Z,14.58
2023-04-13T08:57:19.645Z,18.77
2023-04-13T08:59:53.126Z,12.43
2023-04-13T09:02:26.818Z,18.80
2023-04-13T09:05:00.774Z,15.72
2023-04-13T09:07:34.845Z,13.48
2023-04-13T09:10:06.495Z,13.65
2023-04-13T09:12:35.923Z,16.97
2023-04-13T09:15:07.427Z,14.38
2023-04-13T09:17:39.153Z,13.43
2023-04-13T09:20:21.152Z,17.30
2023-04-13T09:22:52.121Z,15.30
2023-04-13T09:25:27.276Z,15.40
2023-04-13T09:27:57.877Z,17.27
2023-04-13T09:30:28.273Z,9.68
2023-04-13T09:33:05.432Z,14.35
2023-04-13T09:35:35.490Z,13.93
2023-04-13T09:38:05.946Z,15.58
2023-04-13T09:40:36.989Z,12.93
2023-04-13T09:43:10.245Z,11.18
2023-04-13T09:45:41.338Z,15.53
2023-04-13T09:48:22.045Z,10.70
2023-04-13T09:51:02.328Z,13.88
2023-04-13T09:53:43.594Z,17.73
2023-04-13T09:56:14.147Z,14.00
2023-04-13T09:58:45.526Z,13.62
2023-04-13T10:01:15.903Z,11.25
2023-04-13T10:03:46.634Z,15.75
2023-04-13T10:06:15.915Z,14.07
2023-04-13T10:08:46.473Z,11.88
2023-04-13T10:11:16.546Z,11.33
2023-04-13T10:13:54.856Z,13.30
2023-04-13T10:16:42.796Z,13.20
2023-04-13T10:19:15.147Z,15.32
2023-04-13T10:21:47.637Z,12.58
2023-04-13T10:26:46.735Z,11.35
2023-04-13T10:29:16.796Z,11.35
2023-04-13T10:31:49.328Z,16.82
2023-04-13T10:34:27.890Z,17.82
2023-04-13T10:37:01.696Z,31.95
2023-04-13T10:39:33.457Z,39.55
2023-04-13T10:42:04.246Z,16.40
2023-04-13T10:44:45.776Z,15.70
2023-04-13T10:47:17.187Z,14.07
2023-04-13T10:49:47.761Z,13.20
2023-04-13T10:52:17.389Z,14.45
2023-04-13T10:54:47.031Z,10.03
2023-04-13T10:57:16.761Z,10.45
2023-04-13T10:59:57.991Z,17.32
2023-04-13T11:02:26.670Z,14.35
2023-04-13T11:04:56.908Z,11.57
2023-04-13T11:07:29.632Z,13.70
2023-04-13T11:10:03.515Z,9.18
2023-04-13T11:12:33.407Z,16.57
2023-04-13T11:15:02.699Z,12.45
2023-04-13T11:17:31.978Z,10.30
2023-04-13T11:20:02.432Z,7.15
2023-04-13T11:22:35.706Z,9.65
2023-04-13T11:25:09.944Z,11.50
2023-04-13T11:27:40.732Z,10.50
2023-04-13T11:30:11.123Z,7.90
2023-04-13T11:32:45.541Z,9.83
2023-04-13T11:35:15.494Z,11.80
2023-04-13T11:37:50.987Z,9.33
2023-04-13T11:40:23.044Z,8.50
2023-04-13T11:42:54.648Z,10.63
2023-04-13T11:45:29.606Z,11.10
2023-04-13T11:47:59.866Z,8.28
2023-04-13T11:50:29.944Z,11.20
2023-04-13T11:52:59.573Z,12.28
2023-04-13T11:55:30.106Z,8.10
2023-04-13T11:57:59.645Z,8.95
2023-04-13T12:00:29.780Z,15.72
2023-04-13T12:03:02.839Z,10.80
2023-04-13T12:05:33.257Z,9.45
2023-04-13T12:08:04.971Z,13.58
2023-04-13T12:10:42.919Z,9.30
2023-04-13T12:16:05.431Z,13.83
2023-04-13T12:18:24.911Z,14.98
2023-04-13T12:20:53.083Z,11.88
2023-04-13T12:23:24.948Z,10.25
2023-04-13T12:25:57.342Z,8.03
2023-04-13T12:28:36.727Z,11.00
2023-04-13T12:31:09.845Z,5.70
2023-04-13T12:33:40.328Z,6.25
2023-04-13T12:36:13.160Z,6.83
2023-04-13T12:38:42.763Z,7.75
2023-04-13T12:41:12.367Z,8.20
2023-04-13T12:43:41.640Z,3.90
2023-04-13T12:46:11.136Z,8.10
2023-04-13T12:48:40.478Z,3.58
2023-04-13T12:51:10.520Z,7.85
2023-04-13T12:53:40.151Z,7.80
2023-04-13T12:56:10.327Z,7.33
2023-04-13T12:58:39.847Z,7.75
2023-04-13T13:01:09.695Z,9.33
2023-04-13T13:03:39.502Z,5.92
2023-04-13T13:06:09.957Z,5.03
2023-04-13T13:08:40.445Z,7.08
2023-04-13T13:11:09.923Z,8.40
2023-04-13T13:13:39.178Z,6.40
2023-04-13T13:16:08.764Z,7.17
2023-04-13T13:18:49.709Z,6.37
2023-04-13T13:21:11.845Z,7.15
2023-04-13T13:23:41.250Z,4.00
2023-04-13T13:28:42.846Z,7.03
2023-04-13T13:31:12.807Z,4.20
2023-04-13T13:33:42.170Z,5.35
2023-04-13T13:36:13.135Z,6.85
2023-04-13T13:38:43.375Z,5.92
2023-04-13T13:41:13.021Z,7.60
2023-04-13T13:43:42.658Z,4.75
2023-04-13T13:46:12.304Z,5.92
2023-04-13T13:48:41.980Z,9.20
2023-04-13T13:51:13.318Z,4.85
2023-04-13T13:53:42.932Z,6.22
2023-04-13T13:56:12.250Z,9.85
2023-04-13T13:58:41.542Z,7.95
2023-04-13T14:01:10.918Z,7.40
2023-04-13T14:03:40.569Z,4.70
2023-04-13T14:06:10.055Z,7.12
2023-04-13T14:08:39.515Z,8.35
2023-04-13T14:11:08.801Z,6.33
2023-04-13T14:13:38.352Z,5.17
2023-04-13T14:16:08.618Z,4.85
2023-04-13T14:18:38.189Z,5.85
2023-04-13T14:21:08.952Z,6.37
2023-04-13T14:23:40.379Z,7.35
2023-04-13T14:26:09.795Z,7.42
2023-04-13T14:28:39.172Z,6.35
2023-04-13T14:31:09.612Z,5.17
2023-04-13T14:33:39.595Z,8.03
2023-04-13T14:36:11.078Z,6.12
2023-04-13T14:41:56.803Z,8.40
2023-04-13T14:44:26.332Z,7.12
2023-04-13T14:46:55.745Z,7.15
2023-04-13T14:49:25.414Z,6.15
2023-04-13T14:51:54.856Z,5.58
2023-04-13T14:54:24.574Z,7.72
2023-04-13T14:56:54.100Z,5.33
2023-04-13T14:59:24.507Z,8.58
2023-04-13T15:01:53.887Z,4.90
2023-04-13T15:04:23.868Z,4.22
2023-04-13T15:06:54.695Z,4.85
2023-04-13T15:09:24.160Z,6.87
2023-04-13T15:11:53.497Z,5.80
2023-04-13T15:14:23.574Z,6.20
2023-04-13T15:16:52.894Z,4.35
2023-04-13T15:19:22.530Z,4.42
2023-04-13T15:21:52.133Z,6.20
2023-04-13T15:24:21.457Z,4.35
2023-04-13T15:26:51.306Z,7.62
2023-04-13T15:29:20.858Z,5.47
2023-04-13T15:31:52.068Z,4.08
2023-04-13T15:34:21.413Z,5.67
2023-04-13T15:36:51.055Z,8.13
2023-04-13T15:39:20.843Z,8.20
2023-04-13T15:41:51.763Z,6.40
2023-04-13T15:44:21.456Z,9.08
2023-04-13T15:46:51.204Z,5.83
2023-04-13T15:49:20.544Z,5.90
2023-04-13T15:51:49.861Z,7.85
2023-04-13T15:54:19.134Z,10.98
2023-04-13T15:56:48.807Z,4.17
2023-04-13T15:59:18.064Z,6.78
2023-04-13T16:01:49.028Z,8.20
2023-04-13T16:04:18.661Z,5.20
2023-04-13T16:06:55.729Z,4.85
2023-04-13T16:09:20.330Z,9.15
2023-04-13T16:11:50.874Z,6.00
2023-04-13T16:14:20.327Z,6.60
2023-04-13T16:16:51.282Z,10.20
2023-04-13T16:19:21.760Z,6.80
2023-04-13T16:21:51.050Z,6.42
2023-04-13T16:24:21.396Z,7.62
2023-04-13T16:26:50.676Z,7.80
2023-04-13T16:29:20.143Z,4.08
2023-04-13T16:31:49.810Z,5.97
2023-04-13T16:34:26.054Z,2.37
2023-04-13T16:36:52.305Z,3.52
2023-04-13T16:39:24.316Z,3.00
2023-04-13T16:41:53.806Z,5.83
2023-04-13T16:44:23.082Z,11.25
2023-04-13T16:46:52.452Z,8.18
2023-04-13T16:49:21.917Z,5.75
2023-04-13T16:51:51.179Z,3.47
2023-04-13T16:54:21.206Z,4.95
2023-04-13T16:56:50.593Z,6.60
2023-04-13T16:59:20.500Z,4.83
2023-04-13T17:01:50.911Z,8.43
2023-04-13T17:04:20.381Z,6.60
2023-04-13T17:06:49.816Z,6.25
2023-04-13T17:09:19.480Z,9.20
2023-04-13T17:11:48.892Z,8.95
2023-04-13T17:14:18.228Z,10.82
2023-04-13T17:16:47.487Z,11.40
2023-04-13T17:19:17.315Z,8.63
2023-04-13T17:21:46.540Z,6.53
2023-04-13T17:24:16.126Z,9.55
2023-04-13T17:26:45.625Z,6.20
2023-04-13T17:29:15.101Z,9.45
2023-04-13T17:31:44.479Z,9.20
2023-04-13T17:34:14.374Z,8.68
2023-04-13T17:36:43.753Z,10.40
2023-04-13T17:39:13.264Z,8.10
2023-04-13T17:41:43.417Z,13.98
2023-04-13T17:44:12.799Z,9.35
2023-04-13T17:46:42.534Z,10.20
2023-04-13T17:49:13.058Z,11.88
2023-04-13T17:51:48.518Z,10.55
2023-04-13T17:54:17.833Z,6.78
2023-04-13T17:56:47.198Z,12.35
2023-04-13T17:59:16.625Z,9.35
2023-04-13T18:01:46.238Z,15.28
2023-04-13T18:04:16.043Z,15.68
2023-04-13T18:06:45.492Z,13.72
2023-04-13T18:09:14.857Z,10.63
2023-04-13T18:11:44.169Z,12.58
2023-04-13T18:14:15.782Z,12.55
2023-04-13T18:16:45.342Z,12.25
2023-04-13T18:19:15.195Z,10.68
2023-04-13T18:21:44.714Z,7.40
2023-04-13T18:24:14.127Z,9.30
2023-04-13T18:26:43.890Z,9.08
2023-04-13T18:29:14.007Z,10.38
2023-04-13T18:31:43.545Z,12.43
2023-04-13T18:34:14.669Z,11.95
2023-04-13T18:36:44.748Z,14.35
2023-04-13T18:39:14.448Z,15.28
2023-04-13T18:41:43.973Z,13.08
2023-04-13T18:44:13.421Z,10.95
2023-04-13T18:46:43.042Z,11.70
2023-04-13T18:49:12.468Z,9.45
2023-04-13T18:51:42.069Z,6.70
2023-04-13T18:54:11.594Z,6.83
2023-04-13T18:56:41.290Z,7.37
2023-04-13T18:59:10.812Z,8.18
2023-04-13T19:01:40.486Z,8.18
2023-04-13T19:04:10.513Z,9.23
2023-04-13T19:06:40.259Z,10.05
2023-04-13T19:09:09.853Z,51.92
2023-04-13T19:11:51.448Z,36.83
2023-04-13T19:14:21.168Z,44.98
2023-04-13T19:16:52.537Z,27.00
2023-04-13T19:19:22.585Z,13.68
2023-04-13T19:21:55.982Z,8.35
2023-04-13T19:24:25.468Z,10.15
2023-04-13T19:26:56.388Z,7.92
2023-04-13T19:29:30.263Z,10.15
2023-04-13T19:32:00.391Z,9.65
2023-04-13T19:34:29.946Z,17.37
2023-04-13T19:37:00.032Z,19.65
2023-04-13T19:39:29.507Z,12.50
2023-04-13T19:41:58.764Z,14.15
2023-04-13T19:44:28.371Z,9.25
2023-04-13T19:46:57.633Z,9.98
2023-04-13T19:49:26.909Z,10.93
2023-04-13T19:51:56.161Z,23.67
2023-04-13T19:54:26.181Z,10.68
2023-04-13T19:56:55.732Z,12.53
2023-04-13T19:59:25.030Z,11.48
2023-04-13T20:01:54.448Z,13.58
2023-04-13T20:04:25.048Z,9.73
2023-04-13T20:06:55.690Z,15.48
2023-04-13T20:09:25.461Z,15.85
2023-04-13T20:11:55.216Z,8.00
2023-04-13T20:14:24.677Z,12.15
2023-04-13T20:16:53.980Z,10.53
2023-04-13T20:19:24.364Z,14.20
2023-04-13T20:21:54.299Z,10.05
2023-04-13T20:24:23.750Z,9.40
2023-04-13T20:26:53.483Z,13.18
2023-04-13T20:29:24.426Z,7.17
2023-04-13T20:31:53.812Z,16.05
2023-04-13T20:34:24.274Z,11.50
2023-04-13T20:36:53.939Z,11.18
2023-04-13T20:39:25.860Z,11.38
2023-04-13T20:41:55.883Z,16.15
2023-04-13T20:44:26.047Z,14.80
2023-04-13T20:46:55.493Z,13.83
2023-04-13T20:49:25.189Z,12.65
2023-04-13T20:51:55.906Z,11.50
2023-04-13T20:54:25.634Z,13.10
2023-04-13T20:56:54.881Z,11.30
2023-04-13T20:59:24.529Z,17.42
2023-04-13T21:01:54.196Z,16.70
2023-04-13T21:04:23.554Z,13.35
2023-04-13T21:06:53.967Z,13.08
2023-04-13T21:09:23.236Z,16.20
2023-04-13T21:11:52.828Z,25.45
2023-04-13T21:14:23.700Z,19.12
2023-04-13T21:16:55.067Z,18.05
2023-04-13T21:19:25.448Z,20.10
2023-04-13T21:21:56.445Z,20.50
2023-04-13T21:24:25.829Z,17.27
2023-04-13T21:26:56.514Z,18.02
2023-04-13T21:29:27.488Z,22.37
2023-04-13T21:31:56.797Z,29.50
2023-04-13T21:34:27.531Z,27.95
2023-04-13T21:36:57.605Z,37.78
2023-04-13T21:39:26.980Z,23.77
2023-04-13T21:41:56.828Z,29.37
2023-04-13T21:44:29.781Z,20.23
2023-04-13T21:46:58.373Z,16.25
2023-04-13T21:49:27.689Z,16.27
2023-04-13T21:51:57.113Z,17.00
2023-04-13T21:54:26.553Z,22.77
2023-04-13T21:56:55.844Z,22.22
2023-04-13T21:59:26.724Z,19.37
2023-04-13T22:01:56.818Z,17.80
2023-04-13T22:04:26.379Z,16.70
2023-04-13T22:06:56.114Z,18.37
2023-04-13T22:09:25.335Z,13.00
2023-04-13T22:11:54.625Z,12.58
2023-04-13T22:14:25.510Z,16.77
2023-04-13T22:16:54.901Z,15.13
2023-04-13T22:19:24.142Z,13.38
2023-04-13T22:21:54.098Z,16.30
2023-04-13T22:24:23.365Z,11.57
2023-04-13T22:26:52.647Z,14.05
2023-04-13T22:29:21.953Z,12.70
2023-04-13T22:31:51.635Z,9.90
2023-04-13T22:34:21.005Z,9.78
2023-04-13T22:36:50.836Z,13.70
2023-04-13T22:39:20.118Z,11.00
2023-04-13T22:41:49.631Z,13.20
2023-04-13T22:44:18.957Z,10.45
2023-04-13T22:46:48.259Z,12.95
2023-04-13T22:49:17.646Z,11.93
2023-04-13T22:51:47.284Z,16.12
2023-04-13T22:54:16.524Z,12.47
2023-04-13T22:56:47.354Z,12.82
2023-04-13T22:59:16.920Z,10.65
2023-04-13T23:01:46.944Z,11.22
2023-04-13T23:04:16.528Z,15.95
2023-04-13T23:06:47.307Z,16.10
2023-04-13T23:09:16.788Z,10.32
2023-04-13T23:11:46.083Z,12.60
2023-04-13T23:14:17.406Z,13.95
2023-04-13T23:16:46.755Z,10.20
2023-04-13T23:19:20.100Z,13.13
2023-04-13T23:21:49.783Z,11.88
2023-04-13T23:24:19.030Z,11.00
2023-04-13T23:26:48.896Z,12.95
2023-04-13T23:29:19.904Z,14.58
2023-04-13T23:31:50.046Z,10.93
2023-04-13T23:34:19.476Z,13.00
2023-04-13T23:36:48.767Z,13.58
2023-04-13T23:39:18.079Z,12.10
2023-04-13T23:41:47.361Z,15.35
2023-04-13T23:44:16.613Z,13.68
2023-04-13T23:46:46.532Z,11.55
2023-04-13T23:49:16.343Z,11.48
2023-04-13T23:51:46.146Z,13.05
2023-04-13T23:54:15.600Z,16.82
2023-04-13T23:56:44.865Z,12.10
2023-04-13T23:59:14.266Z,10.08
